Time;durP1;ratioP1;P1;durP2;ratioP2;P2;SDS_P1;SDS_P2;PMS_P1;PMS_P2;Temp;Humidity;BMP_temperature;BMP_pressure;BME280_temperature;BME280_humidity;BME280_pressure;Samples;Min_cycle;Max_cycle;Signal;HPM_P1;HPM_P2
2021/05/02 00:01:36;;;;;;;;;;;4.60;95.70;;;;;;5091095;28;19955;-71
2021/05/02 00:04:02;;;;;;;;;;;4.50;95.70;;;;;;5095676;28;19912;-71
2021/05/02 00:06:28;;;;;;;;;;;4.50;95.70;;;;;;5095991;28;19935;-70
2021/05/02 00:08:54;;;;;;;;;;;4.60;95.70;;;;;;5079236;28;20336;-71
2021/05/02 00:11:20;;;;;;;;;;;4.60;95.80;;;;;;5089011;28;20006;-71
2021/05/02 00:13:45;;;;;;;;;;;4.60;95.80;;;;;;5096918;28;20301;-71
2021/05/02 00:16:11;;;;;;;;;;;4.60;95.90;;;;;;5096593;28;19920;-72
2021/05/02 00:18:37;;;;;;;;;;;4.50;95.90;;;;;;5095514;28;19920;-71
2021/05/02 00:21:06;;;;;;;;;;;4.50;95.70;;;;;;5076236;28;20343;-70
2021/05/02 00:23:33;;;;;;;;;;;4.50;95.90;;;;;;5073895;28;20328;-71
2021/05/02 00:25:59;;;;;;;;;;;4.40;95.90;;;;;;5093028;28;19959;-71
2021/05/02 00:28:25;;;;;;;;;;;4.40;96.00;;;;;;5094900;28;20324;-70
2021/05/02 00:30:51;;;;;;;;;;;4.50;95.80;;;;;;5093116;28;19912;-69
2021/05/02 00:33:17;;;;;;;;;;;4.50;96.00;;;;;;5094822;28;19998;-69
2021/05/02 00:35:43;;;;;;;;;;;4.50;95.80;;;;;;5096221;28;20332;-69
2021/05/02 00:38:09;;;;;;;;;;;4.50;95.80;;;;;;5081693;28;19955;-68
2021/05/02 00:40:36;;;;;;;;;;;4.50;95.80;;;;;;5076002;28;19965;-68
2021/05/02 00:43:04;;;;;;;;;;;4.50;95.90;;;;;;5076139;28;19908;-70
2021/05/02 00:45:34;;;;;;;;;;;4.40;96.10;;;;;;5076144;28;19920;-70
2021/05/02 00:48:05;;;;;;;;;;;4.30;96.20;;;;;;5087511;28;20548;-70
2021/05/02 00:50:38;;;;;;;;;;;4.30;96.30;;;;;;5096345;28;19915;-69
2021/05/02 00:53:12;;;;;;;;;;;4.30;96.30;;;;;;5094729;28;20002;-72
2021/05/02 00:55:49;;;;;;;;;;;4.30;96.10;;;;;;5098304;28;20198;-70
2021/05/02 00:58:33;;;;;;;;;;;4.30;96.30;;;;;;5091075;28;19920;-72
2021/05/02 01:01:01;;;;;;;;;;;4.30;96.40;;;;;;5093977;28;19916;-71
2021/05/02 01:03:31;;;;;;;;;;;4.30;96.20;;;;;;5094121;28;19919;-71
2021/05/02 01:05:58;;;;;;;;;;;4.30;96.30;;;;;;5086382;28;19919;-71
2021/05/02 01:08:24;;;;;;;;;;;4.30;96.30;;;;;;5091627;28;19917;-72
2021/05/02 01:10:53;;;;;;;;;;;4.30;96.40;;;;;;5078794;28;19917;-70
2021/05/02 01:13:19;;;;;;;;;;;4.30;96.20;;;;;;5073985;28;19912;-70
2021/05/02 01:15:47;;;;;;;;;;;4.40;96.20;;;;;;5074473;28;19928;-71
2021/05/02 01:18:17;;;;;;;;;;;4.40;96.00;;;;;;5083357;28;19977;-71
2021/05/02 01:20:42;;;;;;;;;;;4.40;96.20;;;;;;5094876;28;19908;-69
2021/05/02 01:23:10;;;;;;;;;;;4.30;96.40;;;;;;5080822;28;20190;-69
2021/05/02 01:25:36;;;;;;;;;;;4.30;96.30;;;;;;5074995;28;19916;-70
2021/05/02 01:28:03;;;;;;;;;;;4.30;96.40;;;;;;5092768;28;20382;-70
2021/05/02 01:30:29;;;;;;;;;;;4.30;96.60;;;;;;5086281;28;20006;-72
2021/05/02 01:32:55;;;;;;;;;;;4.20;96.50;;;;;;5094822;28;19955;-70
2021/05/02 01:35:21;;;;;;;;;;;4.20;96.50;;;;;;5095130;28;20253;-70
2021/05/02 01:37:47;;;;;;;;;;;4.20;96.30;;;;;;5093310;28;19916;-70
2021/05/02 01:40:13;;;;;;;;;;;4.30;96.60;;;;;;5094680;28;19937;-70
2021/05/02 01:42:39;;;;;;;;;;;4.20;97.00;;;;;;5086504;28;20329;-72
2021/05/02 01:45:05;;;;;;;;;;;4.20;96.70;;;;;;5074838;28;19916;-71
2021/05/02 01:47:31;;;;;;;;;;;4.20;96.60;;;;;;5076022;28;19970;-71
2021/05/02 01:50:00;;;;;;;;;;;4.10;96.90;;;;;;5077783;28;19942;-70
2021/05/02 01:52:29;;;;;;;;;;;4.20;97.00;;;;;;5077371;28;19912;-70
2021/05/02 01:54:55;;;;;;;;;;;4.10;96.90;;;;;;5094131;28;19908;-70
2021/05/02 01:57:29;;;;;;;;;;;4.10;97.20;;;;;;5086668;28;20664;-70
2021/05/02 01:59:57;;;;;;;;;;;4.10;97.00;;;;;;5093774;28;19919;-70
2021/05/02 02:02:23;;;;;;;;;;;4.10;96.90;;;;;;5074366;28;19936;-70
2021/05/02 02:04:51;;;;;;;;;;;4.10;97.00;;;;;;5073203;28;20225;-70
2021/05/02 02:07:17;;;;;;;;;;;4.00;96.90;;;;;;5073254;28;19992;-71
2021/05/02 02:09:43;;;;;;;;;;;3.90;97.10;;;;;;5075487;28;20003;-70
2021/05/02 02:12:09;;;;;;;;;;;3.90;97.10;;;;;;5094524;28;19955;-70
2021/05/02 02:14:38;;;;;;;;;;;3.90;97.90;;;;;;5082741;28;20344;-70
2021/05/02 02:17:04;;;;;;;;;;;3.80;97.50;;;;;;5098250;28;20265;-70
2021/05/02 02:19:30;;;;;;;;;;;3.80;97.30;;;;;;5097760;28;19919;-70
2021/05/02 02:21:57;;;;;;;;;;;3.80;97.10;;;;;;5097030;28;20220;-71
2021/05/02 02:24:32;;;;;;;;;;;3.80;97.10;;;;;;5087109;28;20249;-70
2021/05/02 02:27:00;;;;;;;;;;;3.80;97.00;;;;;;5083879;28;19961;-70
2021/05/02 02:29:27;;;;;;;;;;;3.80;96.80;;;;;;5091851;28;19909;-71
2021/05/02 02:31:54;;;;;;;;;;;3.80;97.00;;;;;;5077738;28;19942;-71
2021/05/02 02:34:22;;;;;;;;;;;3.80;96.80;;;;;;5077849;28;19919;-71
2021/05/02 02:36:48;;;;;;;;;;;3.80;96.90;;;;;;5079685;28;19996;-69
2021/05/02 02:39:15;;;;;;;;;;;3.80;96.90;;;;;;5084911;28;20019;-71
2021/05/02 02:41:42;;;;;;;;;;;3.80;96.90;;;;;;5077680;28;19912;-70
2021/05/02 02:44:08;;;;;;;;;;;3.80;96.80;;;;;;5078708;28;19973;-71
2021/05/02 02:46:37;;;;;;;;;;;3.80;96.70;;;;;;5078868;28;20202;-70
2021/05/02 02:49:04;;;;;;;;;;;3.80;96.60;;;;;;5079253;28;19912;-70
2021/05/02 02:51:30;;;;;;;;;;;3.80;96.70;;;;;;5077727;28;19973;-71
2021/05/02 02:53:57;;;;;;;;;;;3.80;96.70;;;;;;5083532;28;20006;-71
2021/05/02 02:56:22;;;;;;;;;;;3.90;96.60;;;;;;5096968;28;19920;-70
2021/05/02 02:59:01;;;;;;;;;;;3.80;96.70;;;;;;5092835;28;20053;-70
2021/05/02 03:01:27;;;;;;;;;;;3.80;96.80;;;;;;5095268;28;19961;-71
2021/05/02 03:03:54;;;;;;;;;;;3.70;96.80;;;;;;5090904;28;19917;-71
2021/05/02 03:06:24;;;;;;;;;;;3.70;96.90;;;;;;5088751;28;20219;-72
2021/05/02 03:08:52;;;;;;;;;;;3.60;96.70;;;;;;5086704;28;19908;-71
2021/05/02 03:11:18;;;;;;;;;;;3.60;96.80;;;;;;5095649;28;19912;-69
2021/05/02 03:13:45;;;;;;;;;;;3.60;96.90;;;;;;5090386;28;19912;-71
2021/05/02 03:16:10;;;;;;;;;;;3.50;97.10;;;;;;5096104;28;20069;-70
2021/05/02 03:18:55;;;;;;;;;;;3.50;97.10;;;;;;5076765;28;19999;-71
2021/05/02 03:21:32;;;;;;;;;;;3.40;97.30;;;;;;5085785;28;19912;-71
2021/05/02 03:24:00;;;;;;;;;;;3.30;97.00;;;;;;5093984;28;19923;-69
2021/05/02 03:26:27;;;;;;;;;;;3.40;96.90;;;;;;5080373;28;19916;-69
2021/05/02 03:28:53;;;;;;;;;;;3.30;97.20;;;;;;5099660;28;19964;-69
2021/05/02 03:31:26;;;;;;;;;;;3.30;97.10;;;;;;5099624;28;19917;-68
2021/05/02 03:33:53;;;;;;;;;;;3.30;96.90;;;;;;5078713;28;19912;-69
2021/05/02 03:36:23;;;;;;;;;;;3.30;97.10;;;;;;5087532;28;19920;-72
2021/05/02 03:38:50;;;;;;;;;;;3.20;97.20;;;;;;5081633;28;19920;-70
2021/05/02 03:41:17;;;;;;;;;;;3.20;97.10;;;;;;5081187;28;19908;-71
2021/05/02 03:43:43;;;;;;;;;;;3.20;97.30;;;;;;5089483;28;19912;-68
2021/05/02 03:46:24;;;;;;;;;;;3.10;97.40;;;;;;5085084;28;20277;-71
2021/05/02 03:48:52;;;;;;;;;;;3.10;97.30;;;;;;5077941;28;19935;-72
2021/05/02 03:51:17;;;;;;;;;;;3.10;97.20;;;;;;5076275;28;19913;-69
2021/05/02 03:53:43;;;;;;;;;;;3.10;97.00;;;;;;5073621;28;19979;-71
2021/05/02 03:56:08;;;;;;;;;;;3.20;97.10;;;;;;5075856;28;19916;-70
2021/05/02 03:58:34;;;;;;;;;;;3.10;97.10;;;;;;5093221;28;19920;-70
2021/05/02 04:01:02;;;;;;;;;;;3.10;96.90;;;;;;5095361;28;20255;-70
2021/05/02 04:03:28;;;;;;;;;;;3.20;96.90;;;;;;5095538;28;19912;-70
2021/05/02 04:05:53;;;;;;;;;;;3.20;96.90;;;;;;5088780;28;20271;-71
2021/05/02 04:08:19;;;;;;;;;;;3.20;97.10;;;;;;5084455;28;19965;-70
2021/05/02 04:10:44;;;;;;;;;;;3.20;96.90;;;;;;5094753;28;19916;-69
2021/05/02 04:13:10;;;;;;;;;;;3.20;97.10;;;;;;5088336;28;19920;-70
2021/05/02 04:15:36;;;;;;;;;;;3.10;97.00;;;;;;5086935;28;19920;-70
2021/05/02 04:18:01;;;;;;;;;;;3.10;97.20;;;;;;5094092;28;19916;-70
2021/05/02 04:20:27;;;;;;;;;;;3.10;97.00;;;;;;5080274;28;20027;-70
2021/05/02 04:22:52;;;;;;;;;;;3.10;97.00;;;;;;5078900;28;20315;-70
2021/05/02 04:25:18;;;;;;;;;;;3.10;96.80;;;;;;5075376;28;19935;-71
2021/05/02 04:27:43;;;;;;;;;;;3.10;97.10;;;;;;5087151;28;20296;-71
2021/05/02 04:30:09;;;;;;;;;;;3.10;97.00;;;;;;5094544;28;19912;-71
2021/05/02 04:32:35;;;;;;;;;;;3.10;97.00;;;;;;5083553;28;19948;-71
2021/05/02 04:35:01;;;;;;;;;;;3.10;97.10;;;;;;5075389;28;20544;-70
2021/05/02 04:37:26;;;;;;;;;;;3.10;97.10;;;;;;5085395;28;19917;-70
2021/05/02 04:39:52;;;;;;;;;;;3.10;97.00;;;;;;5095111;28;20277;-71
2021/05/02 04:42:18;;;;;;;;;;;3.10;97.10;;;;;;5085042;28;20007;-71
2021/05/02 04:44:43;;;;;;;;;;;3.10;97.10;;;;;;5092778;28;19913;-71
2021/05/02 04:47:14;;;;;;;;;;;3.20;97.10;;;;;;5085628;28;19919;-71
2021/05/02 04:49:39;;;;;;;;;;;3.20;97.00;;;;;;5075021;28;20011;-71
2021/05/02 04:52:05;;;;;;;;;;;3.30;97.40;;;;;;5072760;28;20058;-70
2021/05/02 04:54:30;;;;;;;;;;;3.30;97.40;;;;;;5092805;28;19955;-71
2021/05/02 04:56:56;;;;;;;;;;;3.30;97.20;;;;;;5085889;28;19916;-71
2021/05/02 04:59:21;;;;;;;;;;;3.40;97.20;;;;;;5074033;28;19908;-70
2021/05/02 05:01:47;;;;;;;;;;;3.40;97.40;;;;;;5082805;28;19912;-71
2021/05/02 05:04:13;;;;;;;;;;;3.40;97.30;;;;;;5094127;28;19995;-70
2021/05/02 05:06:39;;;;;;;;;;;3.50;97.40;;;;;;5093698;28;19908;-71
2021/05/02 05:09:06;;;;;;;;;;;3.50;97.30;;;;;;5082966;28;19912;-71
2021/05/02 05:11:31;;;;;;;;;;;3.50;97.30;;;;;;5091144;28;20248;-70
2021/05/02 05:13:57;;;;;;;;;;;3.60;97.60;;;;;;5091565;28;19913;-70
2021/05/02 05:16:22;;;;;;;;;;;3.70;97.60;;;;;;5074783;28;20410;-69
2021/05/02 05:18:48;;;;;;;;;;;3.70;98.00;;;;;;5075939;28;19974;-71
2021/05/02 05:21:14;;;;;;;;;;;3.60;98.00;;;;;;5075093;28;19908;-69
2021/05/02 05:23:39;;;;;;;;;;;3.60;97.80;;;;;;5092816;28;19912;-70
2021/05/02 05:26:05;;;;;;;;;;;3.70;98.00;;;;;;5094080;28;20004;-71
2021/05/02 05:28:30;;;;;;;;;;;3.70;98.00;;;;;;5086217;28;19955;-71
2021/05/02 05:30:56;;;;;;;;;;;3.80;97.80;;;;;;5094278;28;19943;-70
2021/05/02 05:33:22;;;;;;;;;;;3.90;98.00;;;;;;5077295;28;20289;-71
2021/05/02 05:35:48;;;;;;;;;;;4.00;98.00;;;;;;5074313;28;20286;-71
2021/05/02 05:38:13;;;;;;;;;;;4.10;98.00;;;;;;5090030;28;19916;-71
2021/05/02 05:40:40;;;;;;;;;;;4.30;98.00;;;;;;5082609;28;20454;-69
2021/05/02 05:43:05;;;;;;;;;;;4.50;98.00;;;;;;5088250;28;19919;-70
2021/05/02 05:45:32;;;;;;;;;;;4.50;98.00;;;;;;5093992;28;19912;-71
2021/05/02 05:47:57;;;;;;;;;;;4.60;98.00;;;;;;5079134;28;19960;-70
2021/05/02 05:50:24;;;;;;;;;;;4.50;98.00;;;;;;5078672;28;19954;-69
2021/05/02 05:52:51;;;;;;;;;;;4.50;98.00;;;;;;5076560;28;19913;-71
2021/05/02 05:55:17;;;;;;;;;;;4.50;98.00;;;;;;5087048;28;19941;-70
2021/05/02 05:57:50;;;;;;;;;;;4.50;98.00;;;;;;5088500;28;19916;-71
2021/05/02 06:00:16;;;;;;;;;;;4.60;98.00;;;;;;5081595;28;19916;-71
2021/05/02 06:02:42;;;;;;;;;;;4.80;98.00;;;;;;5078406;28;19916;-70
2021/05/02 06:05:08;;;;;;;;;;;4.90;98.00;;;;;;5078194;28;20027;-71
2021/05/02 06:07:33;;;;;;;;;;;5.10;98.00;;;;;;5079254;28;19912;-71
2021/05/02 06:09:59;;;;;;;;;;;5.10;98.00;;;;;;5087910;28;19919;-70
2021/05/02 06:12:24;;;;;;;;;;;5.30;98.00;;;;;;5091597;28;19986;-69
2021/05/02 06:14:50;;;;;;;;;;;5.30;98.00;;;;;;5085522;28;19928;-71
2021/05/02 06:17:16;;;;;;;;;;;5.40;98.00;;;;;;5079663;28;19923;-69
2021/05/02 06:19:42;;;;;;;;;;;5.40;98.00;;;;;;5088660;28;19919;-70
2021/05/02 06:22:07;;;;;;;;;;;5.40;98.00;;;;;;5078924;28;19999;-69
2021/05/02 06:24:33;;;;;;;;;;;5.30;98.00;;;;;;5086062;28;19962;-69
2021/05/02 06:26:59;;;;;;;;;;;5.30;98.00;;;;;;5087464;28;19912;-70
2021/05/02 06:29:24;;;;;;;;;;;5.40;98.00;;;;;;5107402;28;19969;-70
2021/05/02 06:31:50;;;;;;;;;;;5.50;98.00;;;;;;5094921;28;19912;-71
2021/05/02 06:34:15;;;;;;;;;;;5.60;98.00;;;;;;5077590;28;19909;-71
2021/05/02 06:36:41;;;;;;;;;;;5.60;98.00;;;;;;5080593;28;19916;-71
2021/05/02 06:39:08;;;;;;;;;;;5.50;98.00;;;;;;5086513;28;19912;-72
2021/05/02 06:41:34;;;;;;;;;;;5.70;98.00;;;;;;5086513;28;20305;-71
2021/05/02 06:44:01;;;;;;;;;;;5.90;98.00;;;;;;5090153;28;19918;-72
2021/05/02 06:46:28;;;;;;;;;;;6.20;98.00;;;;;;5081709;28;20225;-72
2021/05/02 06:49:03;;;;;;;;;;;6.40;98.00;;;;;;5083232;28;19912;-71
2021/05/02 06:51:29;;;;;;;;;;;6.60;98.00;;;;;;5089237;28;19942;-71
2021/05/02 06:53:57;;;;;;;;;;;6.60;97.70;;;;;;5086497;28;21422;-70
2021/05/02 06:56:24;;;;;;;;;;;6.80;97.80;;;;;;5095821;28;19916;-72
2021/05/02 06:58:50;;;;;;;;;;;7.10;98.00;;;;;;5078165;28;20062;-72
2021/05/02 07:01:16;;;;;;;;;;;7.00;97.10;;;;;;5081948;28;19904;-71
2021/05/02 07:03:42;;;;;;;;;;;6.60;96.90;;;;;;5085450;28;19908;-72
2021/05/02 07:06:08;;;;;;;;;;;6.60;98.00;;;;;;5097409;28;19912;-72
2021/05/02 07:08:33;;;;;;;;;;;6.50;97.30;;;;;;5097474;28;19918;-71
2021/05/02 07:10:59;;;;;;;;;;;6.50;97.70;;;;;;5096665;28;20335;-71
2021/05/02 07:13:27;;;;;;;;;;;6.50;97.60;;;;;;5097115;28;19909;-72
2021/05/02 07:15:53;;;;;;;;;;;6.60;98.00;;;;;;5091457;28;19928;-72
2021/05/02 07:18:18;;;;;;;;;;;6.70;97.30;;;;;;5093854;28;19920;-71
2021/05/02 07:20:44;;;;;;;;;;;7.10;97.50;;;;;;5097016;28;20259;-71
2021/05/02 07:23:09;;;;;;;;;;;7.30;96.60;;;;;;5079973;28;20648;-72
2021/05/02 07:25:35;;;;;;;;;;;7.20;96.60;;;;;;5083556;28;20003;-71
2021/05/02 07:28:01;;;;;;;;;;;6.90;96.00;;;;;;5087751;28;19944;-70
2021/05/02 07:30:26;;;;;;;;;;;6.70;96.70;;;;;;5086507;28;19958;-71
2021/05/02 07:32:52;;;;;;;;;;;6.60;97.50;;;;;;5096489;28;19908;-72
2021/05/02 07:35:17;;;;;;;;;;;6.50;97.00;;;;;;5097188;28;19964;-71
2021/05/02 07:37:43;;;;;;;;;;;6.60;97.60;;;;;;5094206;28;19938;-71
2021/05/02 07:40:09;;;;;;;;;;;6.60;97.80;;;;;;5096909;28;19908;-71
2021/05/02 07:42:35;;;;;;;;;;;6.80;97.50;;;;;;5091916;28;19966;-71
2021/05/02 07:45:00;;;;;;;;;;;6.90;97.00;;;;;;5093436;28;19966;-71
2021/05/02 07:47:26;;;;;;;;;;;7.10;96.60;;;;;;5095570;28;20248;-71
2021/05/02 07:49:51;;;;;;;;;;;7.50;97.00;;;;;;5095952;28;19912;-71
2021/05/02 07:52:17;;;;;;;;;;;7.80;95.10;;;;;;5093034;28;19916;-71
2021/05/02 07:54:43;;;;;;;;;;;7.80;95.30;;;;;;5095723;28;19916;-72
2021/05/02 07:57:09;;;;;;;;;;;7.80;93.90;;;;;;5077766;28;19917;-72
2021/05/02 07:59:38;;;;;;;;;;;7.80;94.80;;;;;;5083768;28;19919;-71
2021/05/02 08:02:03;;;;;;;;;;;7.90;95.10;;;;;;5078967;28;19908;-71
2021/05/02 08:04:29;;;;;;;;;;;7.70;94.40;;;;;;5107547;28;19915;-72
2021/05/02 08:06:54;;;;;;;;;;;7.70;94.60;;;;;;5094605;28;20531;-72
2021/05/02 08:09:20;;;;;;;;;;;7.70;93.90;;;;;;5085741;28;19916;-72
2021/05/02 08:11:45;;;;;;;;;;;8.00;94.80;;;;;;5093662;28;19916;-71
2021/05/02 08:14:11;;;;;;;;;;;8.10;94.20;;;;;;5086549;28;19915;-72
2021/05/02 08:16:37;;;;;;;;;;;8.10;94.20;;;;;;5078425;28;19920;-72
2021/05/02 08:19:02;;;;;;;;;;;7.90;92.90;;;;;;5093685;28;19912;-71
2021/05/02 08:21:28;;;;;;;;;;;7.80;93.50;;;;;;5094504;28;20007;-71
2021/05/02 08:23:54;;;;;;;;;;;7.90;93.50;;;;;;5092130;28;19916;-71
2021/05/02 08:26:19;;;;;;;;;;;8.20;94.40;;;;;;5093871;28;19912;-72
2021/05/02 08:28:45;;;;;;;;;;;8.10;92.60;;;;;;5094475;28;19908;-71
2021/05/02 08:31:11;;;;;;;;;;;7.80;92.70;;;;;;5095820;28;19959;-71
2021/05/02 08:33:37;;;;;;;;;;;7.40;92.00;;;;;;5109362;28;19919;-71
2021/05/02 08:36:03;;;;;;;;;;;7.20;93.80;;;;;;5081499;28;19920;-72
2021/05/02 08:38:28;;;;;;;;;;;7.10;94.50;;;;;;5075173;28;19917;-71
2021/05/02 08:40:55;;;;;;;;;;;7.00;94.60;;;;;;5095581;28;19908;-71
2021/05/02 08:43:20;;;;;;;;;;;6.90;95.10;;;;;;5095079;28;19911;-72
2021/05/02 08:45:46;;;;;;;;;;;6.60;95.60;;;;;;5085766;28;19912;-72
2021/05/02 08:48:11;;;;;;;;;;;6.70;96.20;;;;;;5075196;28;20009;-72
2021/05/02 08:50:37;;;;;;;;;;;6.80;96.40;;;;;;5092520;28;19916;-71
2021/05/02 08:53:06;;;;;;;;;;;6.80;95.80;;;;;;5094226;28;19912;-70
2021/05/02 08:55:32;;;;;;;;;;;7.00;95.60;;;;;;5094705;28;19983;-71
2021/05/02 08:57:58;;;;;;;;;;;7.30;95.10;;;;;;5091978;28;19942;-72
2021/05/02 09:00:23;;;;;;;;;;;7.60;95.20;;;;;;5081507;28;19912;-71
2021/05/02 09:02:53;;;;;;;;;;;8.10;94.20;;;;;;5074872;28;19935;-72
2021/05/02 09:05:18;;;;;;;;;;;8.60;94.30;;;;;;5075396;28;20273;-71
2021/05/02 09:07:46;;;;;;;;;;;8.90;91.90;;;;;;5085611;28;20002;-72
2021/05/02 09:10:12;;;;;;;;;;;9.00;91.90;;;;;;5082953;28;19958;-72
2021/05/02 09:12:38;;;;;;;;;;;9.00;91.30;;;;;;5091193;28;19920;-71
2021/05/02 09:15:06;;;;;;;;;;;8.90;91.50;;;;;;5089807;28;19969;-71
2021/05/02 09:17:47;;;;;;;;;;;8.70;91.90;;;;;;5087815;28;19930;-71
2021/05/02 09:20:13;;;;;;;;;;;8.80;93.30;;;;;;5078813;28;19916;-71
2021/05/02 09:22:38;;;;;;;;;;;8.70;92.60;;;;;;5078971;28;19919;-71
2021/05/02 09:25:06;;;;;;;;;;;8.20;93.00;;;;;;5080723;28;19938;-72
2021/05/02 09:27:32;;;;;;;;;;;7.90;94.60;;;;;;5091222;28;19913;-70
2021/05/02 09:30:18;;;;;;;;;;;7.70;94.70;;;;;;5089343;28;20189;-71
2021/05/02 09:32:45;;;;;;;;;;;7.70;94.50;;;;;;5089587;28;19995;-72
2021/05/02 09:35:27;;;;;;;;;;;7.30;93.10;;;;;;5089079;28;19916;-71
2021/05/02 09:38:11;;;;;;;;;;;7.10;93.60;;;;;;5087507;28;19924;-71
2021/05/02 09:40:47;;;;;;;;;;;7.00;94.20;;;;;;5091285;28;19935;-70
2021/05/02 09:43:31;;;;;;;;;;;7.00;94.30;;;;;;5085942;28;20332;-72
2021/05/02 09:46:32;;;;;;;;;;;7.10;93.90;;;;;;5086414;28;19912;-71
2021/05/02 09:49:16;;;;;;;;;;;7.30;93.10;;;;;;5082996;28;19912;-70
2021/05/02 09:51:47;;;;;;;;;;;7.60;92.90;;;;;;5086205;28;19962;-72
2021/05/02 09:54:12;;;;;;;;;;;7.90;92.70;;;;;;5093359;28;19912;-71
2021/05/02 09:56:38;;;;;;;;;;;8.10;91.40;;;;;;5088314;28;19924;-71
2021/05/02 09:59:04;;;;;;;;;;;8.40;91.30;;;;;;5087039;28;19916;-71
2021/05/02 10:01:30;;;;;;;;;;;8.60;90.40;;;;;;5079626;28;19919;-72
2021/05/02 10:03:56;;;;;;;;;;;8.70;90.40;;;;;;5094860;28;20145;-72
2021/05/02 10:06:35;;;;;;;;;;;8.80;88.10;;;;;;5087402;28;20292;-72
2021/05/02 10:09:06;;;;;;;;;;;8.70;87.40;;;;;;5085506;28;20250;-72
2021/05/02 10:11:32;;;;;;;;;;;8.80;87.70;;;;;;5089132;28;19912;-71
2021/05/02 10:14:02;;;;;;;;;;;9.00;88.00;;;;;;5091435;28;19979;-72
2021/05/02 10:16:28;;;;;;;;;;;9.40;87.40;;;;;;5090513;28;19931;-72
2021/05/02 10:18:53;;;;;;;;;;;10.00;84.60;;;;;;5091086;28;19976;-71
2021/05/02 10:21:19;;;;;;;;;;;10.40;85.20;;;;;;5094480;28;19908;-72
2021/05/02 10:23:45;;;;;;;;;;;11.30;85.50;;;;;;5081308;28;20309;-72
2021/05/02 10:26:11;;;;;;;;;;;11.70;82.80;;;;;;5081030;28;20270;-72
2021/05/02 10:28:37;;;;;;;;;;;11.90;81.50;;;;;;5094254;28;20386;-73
2021/05/02 10:31:04;;;;;;;;;;;12.00;79.20;;;;;;5093539;28;19916;-72
2021/05/02 10:33:38;;;;;;;;;;;12.50;78.50;;;;;;5093340;28;19908;-72
2021/05/02 10:36:05;;;;;;;;;;;12.80;77.70;;;;;;5094720;28;20351;-72
2021/05/02 10:38:50;;;;;;;;;;;13.30;74.40;;;;;;5096331;28;19908;-72
2021/05/02 10:41:20;;;;;;;;;;;12.90;73.80;;;;;;5077683;28;19919;-72
2021/05/02 10:43:45;;;;;;;;;;;11.80;75.30;;;;;;5094422;28;19908;-73
2021/05/02 10:46:31;;;;;;;;;;;10.50;78.00;;;;;;5097027;28;19908;-72
2021/05/02 10:48:56;;;;;;;;;;;10.60;79.80;;;;;;5076844;28;19920;-72
2021/05/02 10:51:26;;;;;;;;;;;10.70;80.00;;;;;;5087245;28;20364;-72
2021/05/02 10:54:10;;;;;;;;;;;10.50;80.20;;;;;;5088441;28;19923;-72
2021/05/02 10:56:51;;;;;;;;;;;11.10;79.60;;;;;;5102003;28;19923;-72
2021/05/02 10:59:17;;;;;;;;;;;12.10;75.80;;;;;;5092661;28;20018;-72
2021/05/02 11:01:43;;;;;;;;;;;12.60;75.10;;;;;;5085537;28;19950;-73
2021/05/02 11:04:09;;;;;;;;;;;13.90;72.50;;;;;;5077318;28;20001;-72
2021/05/02 11:06:37;;;;;;;;;;;14.90;70.90;;;;;;5092130;28;20410;-72
2021/05/02 11:09:07;;;;;;;;;;;15.50;68.90;;;;;;5088822;28;19963;-72
2021/05/02 11:11:33;;;;;;;;;;;14.50;66.90;;;;;;5078946;28;19912;-72
2021/05/02 11:14:08;;;;;;;;;;;12.70;71.90;;;;;;5087534;28;20347;-73
2021/05/02 11:16:34;;;;;;;;;;;11.50;74.20;;;;;;5076880;28;19920;-72
2021/05/02 11:19:00;;;;;;;;;;;10.70;77.90;;;;;;5090966;28;19916;-72
2021/05/02 11:21:25;;;;;;;;;;;9.70;78.80;;;;;;5096184;28;19943;-72
2021/05/02 11:23:57;;;;;;;;;;;8.70;82.80;;;;;;5094052;28;19912;-72
2021/05/02 11:26:41;;;;;;;;;;;7.80;89.40;;;;;;5096586;28;20305;-72
2021/05/02 11:29:15;;;;;;;;;;;7.20;93.00;;;;;;5096976;28;19909;-72
2021/05/02 11:31:42;;;;;;;;;;;6.70;94.90;;;;;;5096913;28;19909;-72
2021/05/02 11:34:07;;;;;;;;;;;6.30;96.00;;;;;;5096778;28;19915;-71
2021/05/02 11:36:36;;;;;;;;;;;6.00;96.20;;;;;;5096282;28;19943;-73
2021/05/02 11:39:02;;;;;;;;;;;5.70;96.70;;;;;;5082857;28;19917;-72
2021/05/02 11:41:28;;;;;;;;;;;5.50;96.20;;;;;;5095640;28;19919;-71
2021/05/02 11:43:53;;;;;;;;;;;5.40;97.00;;;;;;5090758;28;19908;-72
2021/05/02 11:46:23;;;;;;;;;;;5.60;96.80;;;;;;5079304;28;19916;-72
2021/05/02 11:48:50;;;;;;;;;;;5.80;97.00;;;;;;5076072;28;19916;-71
2021/05/02 11:51:23;;;;;;;;;;;6.00;97.50;;;;;;5076526;28;19909;-71
2021/05/02 11:53:58;;;;;;;;;;;6.20;97.00;;;;;;5074625;28;19942;-71
2021/05/02 11:56:27;;;;;;;;;;;6.50;97.40;;;;;;5076199;28;20371;-71
2021/05/02 11:58:54;;;;;;;;;;;6.70;97.20;;;;;;5075852;28;19912;-71
2021/05/02 12:01:21;;;;;;;;;;;6.70;96.30;;;;;;5097582;28;19915;-71
2021/05/02 12:03:47;;;;;;;;;;;6.60;93.90;;;;;;5104376;28;19912;-71
2021/05/02 12:06:20;;;;;;;;;;;6.40;94.50;;;;;;5090410;28;19951;-71
2021/05/02 12:08:46;;;;;;;;;;;6.70;95.10;;;;;;5087823;28;19952;-70
2021/05/02 12:11:12;;;;;;;;;;;7.10;93.20;;;;;;5078163;28;19909;-71
2021/05/02 12:13:52;;;;;;;;;;;7.30;92.70;;;;;;5084819;28;19917;-70
2021/05/02 12:16:25;;;;;;;;;;;7.10;92.60;;;;;;5091577;28;19930;-70
2021/05/02 12:19:03;;;;;;;;;;;7.20;93.50;;;;;;5085389;28;20336;-71
2021/05/02 12:21:39;;;;;;;;;;;7.40;93.30;;;;;;5075028;28;19916;-72
2021/05/02 12:24:20;;;;;;;;;;;7.90;92.30;;;;;;5087382;28;20003;-72
2021/05/02 12:26:50;;;;;;;;;;;8.30;90.00;;;;;;5093155;28;20317;-72
2021/05/02 12:29:25;;;;;;;;;;;8.20;88.70;;;;;;5095246;28;19971;-72
2021/05/02 12:31:54;;;;;;;;;;;8.40;88.80;;;;;;5093887;28;19919;-72
2021/05/02 12:34:25;;;;;;;;;;;8.40;90.20;;;;;;5093635;28;19912;-72
2021/05/02 12:36:52;;;;;;;;;;;9.00;89.70;;;;;;5093210;28;19912;-72
2021/05/02 12:39:17;;;;;;;;;;;8.60;85.40;;;;;;5092349;28;19973;-72
2021/05/02 12:41:43;;;;;;;;;;;8.90;87.40;;;;;;5074906;28;20332;-72
2021/05/02 12:44:11;;;;;;;;;;;9.00;84.30;;;;;;5080323;28;19943;-72
2021/05/02 12:46:47;;;;;;;;;;;8.70;88.10;;;;;;5081137;28;20291;-71
2021/05/02 12:49:23;;;;;;;;;;;8.50;87.60;;;;;;5076988;28;20494;-72
2021/05/02 12:51:53;;;;;;;;;;;8.10;89.90;;;;;;5076309;28;20224;-72
2021/05/02 12:54:20;;;;;;;;;;;7.20;93.00;;;;;;5083605;28;20102;-71
2021/05/02 12:56:59;;;;;;;;;;;6.80;95.50;;;;;;5082673;28;19916;-72
2021/05/02 12:59:38;;;;;;;;;;;6.60;95.50;;;;;;5089389;28;19998;-71
2021/05/02 13:02:08;;;;;;;;;;;6.50;95.90;;;;;;5076921;28;19931;-72
2021/05/02 13:04:54;;;;;;;;;;;6.40;96.20;;;;;;5074990;28;20267;-71
2021/05/02 13:07:33;;;;;;;;;;;6.40;96.90;;;;;;5083742;28;19991;-71
2021/05/02 13:10:00;;;;;;;;;;;6.40;97.00;;;;;;5076404;28;19923;-71
2021/05/02 13:12:26;;;;;;;;;;;6.20;95.80;;;;;;5084598;28;20057;-71
2021/05/02 13:15:10;;;;;;;;;;;6.10;95.90;;;;;;5074189;28;20018;-72
2021/05/02 13:17:36;;;;;;;;;;;5.90;96.00;;;;;;5094388;28;20317;-70
2021/05/02 13:20:04;;;;;;;;;;;5.80;96.50;;;;;;5084583;28;20295;-70
2021/05/02 13:22:30;;;;;;;;;;;5.90;96.70;;;;;;5097020;28;19920;-71
2021/05/02 13:25:00;;;;;;;;;;;6.20;96.20;;;;;;5085087;28;19935;-71
2021/05/02 13:27:35;;;;;;;;;;;6.50;96.60;;;;;;5074580;28;19905;-72
2021/05/02 13:30:00;;;;;;;;;;;7.10;96.00;;;;;;5078161;28;20003;-71
2021/05/02 13:32:26;;;;;;;;;;;7.50;95.40;;;;;;5074563;28;20282;-70
2021/05/02 13:34:52;;;;;;;;;;;7.50;94.80;;;;;;5098071;28;19955;-70
2021/05/02 13:37:17;;;;;;;;;;;7.70;94.10;;;;;;5083398;28;19935;-71
2021/05/02 13:39:43;;;;;;;;;;;8.00;94.50;;;;;;5079140;28;20198;-71
2021/05/02 13:42:08;;;;;;;;;;;8.30;93.60;;;;;;5076134;28;19915;-72
2021/05/02 13:44:34;;;;;;;;;;;8.60;92.10;;;;;;5085941;28;19920;-71
2021/05/02 13:47:00;;;;;;;;;;;7.90;88.40;;;;;;5078538;28;20320;-72
2021/05/02 13:49:25;;;;;;;;;;;7.50;89.80;;;;;;5084619;28;19959;-71
2021/05/02 13:51:51;;;;;;;;;;;7.40;92.90;;;;;;5075423;28;19948;-71
2021/05/02 13:54:17;;;;;;;;;;;7.40;93.40;;;;;;5083472;28;19970;-72
2021/05/02 13:56:43;;;;;;;;;;;7.60;92.90;;;;;;5074915;28;19920;-72
2021/05/02 13:59:08;;;;;;;;;;;7.60;91.60;;;;;;5081373;28;20000;-71
2021/05/02 14:01:34;;;;;;;;;;;7.50;92.80;;;;;;5076083;28;19927;-71
2021/05/02 14:04:03;;;;;;;;;;;7.30;92.90;;;;;;5077496;28;19977;-71
2021/05/02 14:06:29;;;;;;;;;;;7.40;92.70;;;;;;5084574;28;19943;-72
2021/05/02 14:08:55;;;;;;;;;;;7.60;91.30;;;;;;5086170;28;19916;-72
2021/05/02 14:11:21;;;;;;;;;;;7.70;91.10;;;;;;5096684;28;20261;-71
2021/05/02 14:13:47;;;;;;;;;;;7.90;92.00;;;;;;5096552;28;19919;-72
2021/05/02 14:16:24;;;;;;;;;;;8.40;85.90;;;;;;5083916;28;19920;-70
2021/05/02 14:18:49;;;;;;;;;;;9.40;89.50;;;;;;5087369;28;20323;-72
2021/05/02 14:21:15;;;;;;;;;;;10.50;83.70;;;;;;5078905;28;19991;-71
2021/05/02 14:23:40;;;;;;;;;;;10.80;79.70;;;;;;5083299;28;20023;-70
2021/05/02 14:26:07;;;;;;;;;;;10.80;78.80;;;;;;5089420;28;19912;-72
2021/05/02 14:28:36;;;;;;;;;;;11.10;80.10;;;;;;5088657;28;20392;-70
2021/05/02 14:31:03;;;;;;;;;;;11.10;79.90;;;;;;5081489;28;19918;-70
2021/05/02 14:33:29;;;;;;;;;;;11.30;79.30;;;;;;5097534;28;20003;-70